• Join FlightAware (Why Join?)
  • Login
  • US Flag 
Gobble Gobble! 
04:16PM EST


 

Airport Tracker/Info


-or-


 

Live Flight TrackerFlight Track Log ✈ EGF3046 ✈ 12-Jun-2013 ✈ KORD - KSYR

Flight Track Log - Related Links

Times and Time Zones

All times are in EDT time to prevent confusion due to time zone crossing. See the EGF3046 flight status page for this flight to view local times or setup timezone preferences in your user account.

Time Position Orientation Groundspeed Altitude Reporting Facility
EDT Latitude Longitude Course Direction KTS MPH feet Rate Location/Type
03:19PM 41.9667 -87.8167 77° East 218 251 2,800  Level Chicago TRACON
03:20PM 41.9675 -87.8028 85° East 217 250 3,300 1,500 Climbing Chicago Center
03:21PM 42.1115 -87.5035 59° Northeast  Level FlightAware Approximate
03:21PM 41.9622 -87.7144 95° East 227 261 4,800  Level Chicago Center
03:22PM 42.1654 -87.3705 66° East  Level FlightAware Approximate
03:22PM 42.0067 -87.5947 63° Northeast 298 343 7,000  Level Chicago Center
03:23PM 42.2116 -87.2320 66° East  Level FlightAware Approximate
03:23PM 42.0558 -87.4972 56° Northeast 314 361 8,800  Level Chicago Center
03:24PM 42.2578 -87.0934 66° East  Level FlightAware Approximate
03:24PM 42.1067 -87.3983 55° Northeast 321 369 10,700  Level Chicago Center
03:25PM 42.2808 -86.9489 77° East  Level FlightAware Approximate
03:25PM 42.1589 -87.2953 56° Northeast 331 381 12,300  Level Chicago Center
03:26PM 42.2139 -87.1917 54° Northeast 339 390 13,800 1,500 Climbing Chicago Center
03:27PM 42.2808 -87.0578 56° Northeast 360 414 15,400 1,200 Climbing Chicago Center
03:28PM 42.2853 -86.9111 88° East 388 447 16,300 1,080 Climbing Chicago Center
03:29PM 42.2844 -86.7611 90° East 400 460 17,700 1,200 Climbing Chicago Center
03:30PM 42.2858 -86.6125 89° East 406 467 18,900 1,020 Climbing Chicago Center
03:31PM 42.2861 -86.4558 90° East 416 479 19,900 960 Climbing Chicago Center
03:32PM 42.2881 -86.2925 89° East 431 496 21,000 1,080 Climbing Chicago Center
03:33PM 42.2897 -86.1047 89° East 442 509 22,200 1,140 Climbing Chicago Center
03:34PM 42.2744 -85.9383 97° East 450 518 23,400 1,140 Climbing Chicago Center
03:35PM 42.2503 -85.7753 101° East 448 516 24,600 1,440 Climbing Chicago Center
03:36PM 42.2197 -85.5828 102° East 442 509 26,400 1,620 Climbing Chicago Center
03:37PM 42.1961 -85.4278 102° East 428 493 28,000 1,200 Climbing Chicago Center
03:38PM 42.2017 -85.2736 87° East 419 482 29,000 480 Climbing Chicago Center
03:39PM 42.2256 -85.1117 79° East 438 504 29,000  Level Chicago Center
03:40PM 42.2483 -84.9431 80° East 453 521 29,000  Level Chicago Center
03:41PM 42.2750 -84.7281 80° East 475 547 29,000  Level Chicago Center
03:43PM 42.2983 -84.5439 80° East 491 565 29,000  Level Chicago Center
03:44PM 42.3208 -84.3619 80° East 494 568 29,000  Level Chicago Center
03:44PM 42.3336 -84.2292 83° East 484 557 29,000  Level Cleveland Center
03:45PM 42.3561 -84.0422 81° East 489 563 29,000  Level Cleveland Center
03:46PM 42.3781 -83.8578 81° East 489 563 29,000  Level Cleveland Center
03:47PM 42.3997 -83.6761 81° East 494 568 29,000  Level Cleveland Center
03:48PM 42.4131 -83.4856 85° East 500 575 29,000  Level Cleveland Center
03:49PM 42.4178 -83.2944 88° East 500 575 29,000  Level Cleveland Center
03:50PM 42.4233 -83.1428 87° East 500 575 29,000  Level Cleveland Center
03:51PM 42.4297 -82.9378 88° East 495 570 29,000  Level Cleveland Center
03:52PM 42.4356 -82.7494 88° East 495 570 29,000  Level Cleveland Center
03:53PM 42.4411 -82.5667 88° East 495 570 29,000  Level Cleveland Center
03:54PM 42.4461 -82.3811 88° East 495 570 29,000  Level Cleveland Center
03:55PM 42.4531 -82.1956 87° East 495 570 29,000  Level Cleveland Center
03:56PM 42.4558 -81.9903 89° East 495 570 29,000  Level Cleveland Center
03:57PM 42.4597 -81.8214 88° East 495 570 29,000  Level Cleveland Center
03:58PM 42.4661 -81.6133 88° East 495 570 29,000  Level Cleveland Center
03:59PM 42.4697 -81.4247 88° East 495 570 29,000  Level Cleveland Center
04:00PM 42.4731 -81.2392 89° East 500 575 29,000  Level Cleveland Center
04:01PM 42.4758 -81.0561 89° East 493 567 29,000  Level Cleveland Center
04:02PM 42.4806 -80.8817 88° East 470 541 29,000  Level Cleveland Center
04:03PM 42.4789 -80.7211 91° East 460 529 29,000  Level Cleveland Center
04:04PM 42.4831 -80.5467 88° East 460 529 29,000  Level Cleveland Center
04:05PM 42.4831 -80.3719 90° East 460 529 29,000  Level Cleveland Center
04:06PM 42.5056 -80.2086 79° East 452 520 29,000  Level Cleveland Center
04:07PM 42.5339 -80.0394 77° East 452 520 29,000  Level Cleveland Center
04:08PM 42.5683 -79.8503 76° East 452 520 29,000  Level Cleveland Center
04:09PM 42.5942 -79.6806 78° East 452 520 29,000  Level Cleveland Center
04:10PM 42.6219 -79.5025 78° East 457 526 29,000  Level Cleveland Center
04:11PM 42.6514 -79.3269 77° East 469 540 29,000  Level Cleveland Center
04:12PM 42.6764 -79.1514 79° East 474 545 29,000  Level Cleveland Center
04:13PM 42.7053 -78.9756 77° East 474 545 29,000  Level Cleveland Center
04:14PM 42.7319 -78.7997 78° East 469 540 29,000  Level Cleveland Center
04:15PM 42.7603 -78.6178 78° East 469 540 29,000 -240 Level Cleveland Center
04:16PM 42.7864 -78.4417 79° East 469 540 28,600 -720 Descending Cleveland Center
04:17PM 42.8142 -78.2567 78° East 475 547 27,600 -840 Descending Cleveland Center
04:18PM 42.8414 -78.0686 79° East 483 556 27,000 -300 Descending Cleveland Center
04:19PM 42.8683 -77.8836 79° East 489 563 27,000  Level Cleveland Center
04:20PM 42.8953 -77.7039 78° East 489 563 27,000  Level Cleveland Center
04:21PM 42.9200 -77.5239 79° East 483 556 27,000 -540 Level Cleveland Center
04:22PM 42.9464 -77.3439 79° East 483 556 26,000 -2,100 Descending Cleveland Center
04:23PM 42.9683 -77.1697 80° East 478 550 22,900 -3,120 Descending Cleveland Center
04:26PM 43.0242 -76.7833 79° East 425 489 15,500 -3,180 Descending Boston Center
04:27PM 43.0592 -76.6267 73° East 404 465 12,300 -2,280 Descending Boston Center
04:28PM 43.0956 -76.4839 71° East 356 410 10,700 -1,380 Descending Boston Center
04:29PM 43.1247 -76.3692 71° East 290 334 9,400 -1,440 Descending Boston Center
04:30PM 43.1550 -76.2772 66° East 270 311 7,800 -1,740 Descending Boston Center
04:31PM 43.1933 -76.1856 60° Northeast 263 303 6,000 -1,800 Descending Boston Center
04:32PM 43.2253 -76.0992 63° Northeast 257 296 4,200 -1,860 Descending Boston Center
04:33PM 43.1794 -76.0336 134° Southeast 242 278 2,300 -1,440 Descending Boston Center
04:34PM 43.1253 -76.0361 182° South 153 176 1,400 -840 Descending Boston Center
04:35PM 43.1092 -76.0864 246° West 127 146 700 -720 Descending Boston Center